This is the latest recevied weather packets stored in our database for station/object KC3WWU. If no packets are shown the sender has not sent any weather packets the latest 10 day(s).
| Time | Temp. | Humidity | Pressure | Rain* | Wind** | Luminosity | Snow |
|---|---|---|---|---|---|---|---|
| 1778176604 | 11.67° C | 54% | 1008.2 hPa | 0 mm | - | 217 W/m² | - |
| 1778176301 | 12.78° C | 51% | 1008.1 hPa | 0 mm | - | 151 W/m² | - |
| 1778175998 | 13.33° C | 50% | 1008.2 hPa | 0 mm | - | 261 W/m² | - |
| 1778175696 | 12.78° C | 49% | 1008.5 hPa | 0 mm | - | 947 W/m² | - |
| 1778175393 | 13.89° C | 48% | 1008.6 hPa | 0 mm | - | 623 W/m² | - |
| 1778175090 | 13.33° C | 52% | 1008.6 hPa | 0 mm | - | 864 W/m² | - |
| 1778174786 | 12.78° C | 51% | 1008.6 hPa | 0 mm | - | 874 W/m² | - |
| 1778174483 | 12.78° C | 53% | 1008.8 hPa | 0 mm | - | 188 W/m² | - |
| 1778174178 | 12.22° C | 54% | 1008.8 hPa | 0 mm | - | 598 W/m² | - |
| 1778173875 | 13.33° C | 48% | 1008.8 hPa | 0 mm | - | 251 W/m² | - |
| 1778173572 | 11.67° C | 52% | 1009.1 hPa | 0 mm | - | 913 W/m² | - |
| 1778173269 | 12.22° C | 50% | 1008.9 hPa | 0 mm | - | 324 W/m² | - |
| 1778172965 | 12.22° C | 53% | 1008.9 hPa | 0 mm | - | 262 W/m² | - |
| 1778172661 | 12.22° C | 55% | 1008.9 hPa | 0 mm | - | 207 W/m² | - |
| 1778172358 | 12.22° C | 55% | 1008.9 hPa | 0 mm | - | 261 W/m² | - |
| 1778172055 | 12.22° C | 57% | 1008.9 hPa | 0 mm | - | 727 W/m² | - |
| 1778171753 | 12.78° C | 52% | 1008.9 hPa | 0 mm | - | 814 W/m² | - |
| 1778171451 | 12.22° C | 50% | 1009.2 hPa | 0 mm | - | 805 W/m² | - |
| 1778171150 | 13.33° C | 51% | 1009.1 hPa | 0 mm | - | 165 W/m² | - |
| 1778170848 | 12.78° C | 48% | 1009.1 hPa | 0 mm | - | 729 W/m² | - |
| 1778170544 | 12.78° C | 52% | 1009.2 hPa | 0 mm | - | 828 W/m² | - |
| 1778170240 | 12.22° C | 49% | 1009.1 hPa | 0 mm | - | 503 W/m² | - |
| 1778169936 | 11.67° C | 51% | 1009.2 hPa | 0 mm | - | 754 W/m² | - |
| 1778169633 | 11.11° C | 57% | 1009.5 hPa | 0 mm | - | 200 W/m² | - |
| 1778169328 | 11.67° C | 50% | 1009.4 hPa | 0 mm | - | 162 W/m² | - |
* Rain latest hour (hover to see other rain measurements)
** Current wind speed in m/s (hover to see current wind gust speed)